ΕΜΥ, Εθνική Μετεωρολογική Υπηρεσία - Δελτία Καιρού, Προγνώσεις

ΑΕΡΟΝΑΥΤΙΛΙΑ

GREEK AIRPORTS CODES

TAF LGPL 290700Z 2909/2918 35018KT 9999 FEW025 TEMPO 2909/2915 35018G28KT=

EUROPEAN AIRPORTS CODES

LFPO 291200Z 22008KT 170V290 CAVOK 25/10 Q1014=